sensor_id;sensor_type;location;lat;lon;timestamp;pressure;altitude;pressure_sealevel;temperature;humidity
6694;BME280;3384;42.628;23.380;2022-08-19T00:01:16;94015.69;;;22.84;100.00
6694;BME280;3384;42.628;23.380;2022-08-19T00:03:43;94014.22;;;22.97;100.00
6694;BME280;3384;42.628;23.380;2022-08-19T00:06:10;94035.34;;;23.10;100.00
6694;BME280;3384;42.628;23.380;2022-08-19T00:08:37;94020.47;;;23.04;100.00
6694;BME280;3384;42.628;23.380;2022-08-19T00:11:04;94024.34;;;22.96;100.00
6694;BME280;3384;42.628;23.380;2022-08-19T00:13:32;94025.19;;;23.07;100.00
6694;BME280;3384;42.628;23.380;2022-08-19T00:16:01;94013.03;;;23.01;100.00
6694;BME280;3384;42.628;23.380;2022-08-19T00:18:28;94009.09;;;22.88;100.00
6694;BME280;3384;42.628;23.380;2022-08-19T00:20:55;94046.97;;;22.90;100.00
6694;BME280;3384;42.628;23.380;2022-08-19T00:23:22;94044.47;;;22.60;100.00
6694;BME280;3384;42.628;23.380;2022-08-19T00:25:48;94025.00;;;22.69;100.00
6694;BME280;3384;42.628;23.380;2022-08-19T00:28:16;94027.97;;;22.50;100.00
6694;BME280;3384;42.628;23.380;2022-08-19T00:30:43;94035.94;;;22.69;100.00
6694;BME280;3384;42.628;23.380;2022-08-19T00:33:11;94041.72;;;22.64;100.00
6694;BME280;3384;42.628;23.380;2022-08-19T00:35:39;94037.16;;;22.78;100.00
6694;BME280;3384;42.628;23.380;2022-08-19T00:38:06;94031.56;;;22.61;100.00
6694;BME280;3384;42.628;23.380;2022-08-19T00:40:32;94035.53;;;22.70;100.00
6694;BME280;3384;42.628;23.380;2022-08-19T00:42:59;94037.16;;;22.78;100.00
6694;BME280;3384;42.628;23.380;2022-08-19T00:45:28;94030.84;;;22.71;100.00
6694;BME280;3384;42.628;23.380;2022-08-19T00:47:57;94028.94;;;22.78;100.00
6694;BME280;3384;42.628;23.380;2022-08-19T00:50:30;94022.31;;;22.79;100.00
6694;BME280;3384;42.628;23.380;2022-08-19T00:52:58;94033.63;;;22.78;100.00
6694;BME280;3384;42.628;23.380;2022-08-19T00:55:26;94041.78;;;22.71;100.00
6694;BME280;3384;42.628;23.380;2022-08-19T00:57:56;94024.16;;;22.65;100.00
6694;BME280;3384;42.628;23.380;2022-08-19T01:00:26;94024.16;;;22.61;100.00
6694;BME280;3384;42.628;23.380;2022-08-19T01:02:53;94021.00;;;22.56;100.00
6694;BME280;3384;42.628;23.380;2022-08-19T01:05:22;94023.38;;;22.61;100.00
6694;BME280;3384;42.628;23.380;2022-08-19T01:07:52;94028.06;;;22.60;100.00
6694;BME280;3384;42.628;23.380;2022-08-19T01:10:23;94030.00;;;22.63;100.00
6694;BME280;3384;42.628;23.380;2022-08-19T01:12:51;94021.50;;;22.21;100.00
6694;BME280;3384;42.628;23.380;2022-08-19T01:15:22;94026.16;;;22.17;100.00
6694;BME280;3384;42.628;23.380;2022-08-19T01:17:50;94023.84;;;22.23;100.00
6694;BME280;3384;42.628;23.380;2022-08-19T01:20:20;94025.28;;;22.06;100.00
6694;BME280;3384;42.628;23.380;2022-08-19T01:22:51;94018.38;;;22.23;100.00
6694;BME280;3384;42.628;23.380;2022-08-19T01:25:22;94027.84;;;22.32;100.00
6694;BME280;3384;42.628;23.380;2022-08-19T01:27:51;94021.63;;;21.88;100.00
6694;BME280;3384;42.628;23.380;2022-08-19T01:30:22;94001.56;;;21.70;100.00
6694;BME280;3384;42.628;23.380;2022-08-19T01:32:50;94014.28;;;21.59;100.00
6694;BME280;3384;42.628;23.380;2022-08-19T01:35:20;94023.63;;;21.54;100.00
6694;BME280;3384;42.628;23.380;2022-08-19T01:37:53;94027.69;;;21.71;100.00
6694;BME280;3384;42.628;23.380;2022-08-19T01:40:22;94030.81;;;21.73;100.00
6694;BME280;3384;42.628;23.380;2022-08-19T01:42:52;94050.91;;;21.58;100.00
6694;BME280;3384;42.628;23.380;2022-08-19T01:45:20;94030.19;;;21.50;100.00
6694;BME280;3384;42.628;23.380;2022-08-19T01:47:48;94032.13;;;21.49;100.00
6694;BME280;3384;42.628;23.380;2022-08-19T01:50:15;94025.41;;;21.40;100.00
6694;BME280;3384;42.628;23.380;2022-08-19T01:52:44;94023.34;;;20.97;100.00
6694;BME280;3384;42.628;23.380;2022-08-19T01:55:14;94038.84;;;20.93;100.00
6694;BME280;3384;42.628;23.380;2022-08-19T01:57:46;94019.00;;;21.25;100.00
6694;BME280;3384;42.628;23.380;2022-08-19T02:00:16;94019.50;;;21.34;100.00
6694;BME280;3384;42.628;23.380;2022-08-19T02:02:45;94012.78;;;21.62;100.00
6694;BME280;3384;42.628;23.380;2022-08-19T02:05:12;94033.13;;;21.71;100.00
6694;BME280;3384;42.628;23.380;2022-08-19T02:07:40;94013.75;;;21.80;100.00
6694;BME280;3384;42.628;23.380;2022-08-19T02:10:10;94027.41;;;21.83;100.00
6694;BME280;3384;42.628;23.380;2022-08-19T02:12:38;94031.38;;;21.89;100.00
6694;BME280;3384;42.628;23.380;2022-08-19T02:15:06;94025.03;;;21.78;100.00
6694;BME280;3384;42.628;23.380;2022-08-19T02:17:33;94023.25;;;21.56;100.00
6694;BME280;3384;42.628;23.380;2022-08-19T02:20:00;94022.59;;;21.70;100.00
6694;BME280;3384;42.628;23.380;2022-08-19T02:24:55;94011.53;;;21.55;100.00
6694;BME280;3384;42.628;23.380;2022-08-19T02:27:22;94020.97;;;21.62;100.00
6694;BME280;3384;42.628;23.380;2022-08-19T02:29:51;94038.97;;;21.70;100.00
6694;BME280;3384;42.628;23.380;2022-08-19T02:32:19;94027.34;;;21.73;100.00
6694;BME280;3384;42.628;23.380;2022-08-19T02:34:46;94032.91;;;21.50;100.00
6694;BME280;3384;42.628;23.380;2022-08-19T02:37:13;94030.78;;;21.33;100.00
6694;BME280;3384;42.628;23.380;2022-08-19T02:39:54;94018.34;;;21.35;100.00
6694;BME280;3384;42.628;23.380;2022-08-19T02:42:21;94026.16;;;21.37;100.00
6694;BME280;3384;42.628;23.380;2022-08-19T02:44:49;94039.56;;;20.90;100.00
6694;BME280;3384;42.628;23.380;2022-08-19T02:47:17;94037.25;;;20.92;100.00
6694;BME280;3384;42.628;23.380;2022-08-19T02:49:44;94042.03;;;20.98;100.00
6694;BME280;3384;42.628;23.380;2022-08-19T02:52:11;94030.25;;;20.91;100.00
6694;BME280;3384;42.628;23.380;2022-08-19T02:54:39;94059.06;;;20.92;100.00
6694;BME280;3384;42.628;23.380;2022-08-19T02:57:06;94040.22;;;20.80;100.00
6694;BME280;3384;42.628;23.380;2022-08-19T02:59:33;94036.88;;;20.64;100.00
6694;BME280;3384;42.628;23.380;2022-08-19T03:02:02;94028.19;;;20.55;100.00
6694;BME280;3384;42.628;23.380;2022-08-19T03:04:29;94035.75;;;20.39;100.00
6694;BME280;3384;42.628;23.380;2022-08-19T03:06:56;94035.13;;;20.49;100.00
6694;BME280;3384;42.628;23.380;2022-08-19T03:09:22;94038.41;;;20.61;100.00
6694;BME280;3384;42.628;23.380;2022-08-19T03:11:49;94041.25;;;20.16;100.00
6694;BME280;3384;42.628;23.380;2022-08-19T03:14:16;94043.69;;;20.51;100.00
6694;BME280;3384;42.628;23.380;2022-08-19T03:16:46;94035.41;;;20.70;100.00
6694;BME280;3384;42.628;23.380;2022-08-19T03:19:16;94035.44;;;20.99;100.00
6694;BME280;3384;42.628;23.380;2022-08-19T03:21:44;94035.69;;;20.91;100.00
6694;BME280;3384;42.628;23.380;2022-08-19T03:24:12;94039.47;;;20.83;100.00
6694;BME280;3384;42.628;23.380;2022-08-19T03:26:40;94013.97;;;20.94;100.00
6694;BME280;3384;42.628;23.380;2022-08-19T03:29:07;94024.16;;;20.71;100.00
6694;BME280;3384;42.628;23.380;2022-08-19T03:31:35;94022.84;;;20.62;100.00
6694;BME280;3384;42.628;23.380;2022-08-19T03:34:03;94030.19;;;20.87;100.00
6694;BME280;3384;42.628;23.380;2022-08-19T03:36:31;94020.53;;;20.64;100.00
6694;BME280;3384;42.628;23.380;2022-08-19T03:39:00;94032.78;;;20.77;100.00
6694;BME280;3384;42.628;23.380;2022-08-19T03:41:29;94045.72;;;20.83;100.00
6694;BME280;3384;42.628;23.380;2022-08-19T03:43:57;94018.25;;;20.66;100.00
6694;BME280;3384;42.628;23.380;2022-08-19T03:46:25;94034.16;;;20.64;100.00
6694;BME280;3384;42.628;23.380;2022-08-19T03:48:55;94037.13;;;20.52;100.00
6694;BME280;3384;42.628;23.380;2022-08-19T03:51:25;94053.81;;;20.50;100.00
6694;BME280;3384;42.628;23.380;2022-08-19T03:53:54;94034.81;;;20.28;100.00
6694;BME280;3384;42.628;23.380;2022-08-19T03:56:22;94054.72;;;20.32;100.00
6694;BME280;3384;42.628;23.380;2022-08-19T03:58:50;94056.41;;;20.17;100.00
6694;BME280;3384;42.628;23.380;2022-08-19T04:01:19;94052.59;;;20.74;100.00
6694;BME280;3384;42.628;23.380;2022-08-19T04:03:46;94057.41;;;20.84;100.00
6694;BME280;3384;42.628;23.380;2022-08-19T04:06:16;94063.38;;;20.93;100.00
6694;BME280;3384;42.628;23.380;2022-08-19T04:08:45;94078.13;;;20.92;100.00
6694;BME280;3384;42.628;23.380;2022-08-19T04:11:19;94067.72;;;20.97;100.00
6694;BME280;3384;42.628;23.380;2022-08-19T04:13:47;94072.22;;;20.86;100.00
6694;BME280;3384;42.628;23.380;2022-08-19T04:16:14;94067.94;;;20.59;100.00
6694;BME280;3384;42.628;23.380;2022-08-19T04:18:41;94076.03;;;20.82;100.00
6694;BME280;3384;42.628;23.380;2022-08-19T04:21:08;94066.97;;;20.97;100.00
6694;BME280;3384;42.628;23.380;2022-08-19T04:23:41;94075.63;;;20.54;100.00
6694;BME280;3384;42.628;23.380;2022-08-19T04:26:14;94069.03;;;20.55;100.00
6694;BME280;3384;42.628;23.380;2022-08-19T04:28:41;94097.31;;;20.47;100.00
6694;BME280;3384;42.628;23.380;2022-08-19T04:31:13;94086.28;;;20.36;100.00
6694;BME280;3384;42.628;23.380;2022-08-19T04:33:41;94065.75;;;20.68;100.00
6694;BME280;3384;42.628;23.380;2022-08-19T04:39:30;94079.72;;;20.93;100.00
6694;BME280;3384;42.628;23.380;2022-08-19T04:42:17;94073.16;;;20.94;100.00
6694;BME280;3384;42.628;23.380;2022-08-19T04:48:27;94068.34;;;20.87;100.00
6694;BME280;3384;42.628;23.380;2022-08-19T04:54:31;94070.97;;;21.06;100.00
6694;BME280;3384;42.628;23.380;2022-08-19T04:56:58;94073.22;;;21.01;100.00
6694;BME280;3384;42.628;23.380;2022-08-19T04:59:26;94075.78;;;21.20;100.00
6694;BME280;3384;42.628;23.380;2022-08-19T05:01:53;94078.50;;;21.16;100.00
6694;BME280;3384;42.628;23.380;2022-08-19T05:04:20;94085.34;;;21.36;100.00
6694;BME280;3384;42.628;23.380;2022-08-19T05:06:48;94070.47;;;21.30;100.00
6694;BME280;3384;42.628;23.380;2022-08-19T05:09:17;94086.81;;;21.63;100.00
6694;BME280;3384;42.628;23.380;2022-08-19T05:11:45;94099.03;;;21.73;100.00
6694;BME280;3384;42.628;23.380;2022-08-19T05:14:12;94091.38;;;21.86;100.00
6694;BME280;3384;42.628;23.380;2022-08-19T05:16:40;94095.94;;;21.75;100.00
6694;BME280;3384;42.628;23.380;2022-08-19T05:19:08;94092.53;;;21.85;100.00
6694;BME280;3384;42.628;23.380;2022-08-19T05:21:53;94100.75;;;21.88;100.00
6694;BME280;3384;42.628;23.380;2022-08-19T05:24:39;94088.72;;;21.93;100.00
6694;BME280;3384;42.628;23.380;2022-08-19T05:30:28;94071.03;;;22.20;100.00
6694;BME280;3384;42.628;23.380;2022-08-19T05:32:56;94064.81;;;22.23;100.00
6694;BME280;3384;42.628;23.380;2022-08-19T05:35:28;94085.75;;;22.52;100.00
6694;BME280;3384;42.628;23.380;2022-08-19T05:38:00;94087.66;;;22.48;100.00
6694;BME280;3384;42.628;23.380;2022-08-19T05:40:29;94079.00;;;22.42;100.00
6694;BME280;3384;42.628;23.380;2022-08-19T05:42:56;94109.59;;;22.58;100.00
6694;BME280;3384;42.628;23.380;2022-08-19T05:45:23;94079.69;;;22.76;100.00
6694;BME280;3384;42.628;23.380;2022-08-19T05:47:50;94079.72;;;22.83;100.00
6694;BME280;3384;42.628;23.380;2022-08-19T05:50:19;94077.34;;;22.78;100.00
6694;BME280;3384;42.628;23.380;2022-08-19T05:52:46;94088.72;;;22.87;100.00
6694;BME280;3384;42.628;23.380;2022-08-19T05:55:13;94100.13;;;22.99;100.00
6694;BME280;3384;42.628;23.380;2022-08-19T05:57:40;94112.00;;;23.24;100.00
6694;BME280;3384;42.628;23.380;2022-08-19T06:00:08;94090.44;;;23.16;100.00
6694;BME280;3384;42.628;23.380;2022-08-19T06:02:37;94093.19;;;23.12;100.00
6694;BME280;3384;42.628;23.380;2022-08-19T06:05:04;94089.69;;;23.15;100.00
6694;BME280;3384;42.628;23.380;2022-08-19T06:07:36;94101.81;;;23.18;100.00
6694;BME280;3384;42.628;23.380;2022-08-19T06:10:04;94094.09;;;23.37;100.00
6694;BME280;3384;42.628;23.380;2022-08-19T06:12:32;94093.25;;;23.23;100.00
6694;BME280;3384;42.628;23.380;2022-08-19T06:15:01;94090.56;;;23.33;100.00
6694;BME280;3384;42.628;23.380;2022-08-19T06:17:29;94097.19;;;23.32;100.00
6694;BME280;3384;42.628;23.380;2022-08-19T06:19:56;94088.66;;;23.48;100.00
6694;BME280;3384;42.628;23.380;2022-08-19T06:22:24;94107.84;;;23.55;100.00
6694;BME280;3384;42.628;23.380;2022-08-19T06:24:53;94116.09;;;23.69;100.00
6694;BME280;3384;42.628;23.380;2022-08-19T06:27:20;94109.06;;;23.68;100.00
6694;BME280;3384;42.628;23.380;2022-08-19T06:29:47;94097.78;;;23.83;100.00
6694;BME280;3384;42.628;23.380;2022-08-19T06:32:15;94095.09;;;23.97;100.00
6694;BME280;3384;42.628;23.380;2022-08-19T06:34:43;94096.28;;;23.96;100.00
6694;BME280;3384;42.628;23.380;2022-08-19T06:37:11;94087.69;;;24.05;100.00
6694;BME280;3384;42.628;23.380;2022-08-19T06:39:39;94090.81;;;24.07;100.00
6694;BME280;3384;42.628;23.380;2022-08-19T06:42:09;94095.13;;;24.26;100.00
6694;BME280;3384;42.628;23.380;2022-08-19T06:44:39;94088.09;;;24.18;100.00
6694;BME280;3384;42.628;23.380;2022-08-19T06:47:08;94092.81;;;24.52;100.00
6694;BME280;3384;42.628;23.380;2022-08-19T06:49:36;94097.88;;;24.33;100.00
6694;BME280;3384;42.628;23.380;2022-08-19T06:52:03;94090.47;;;24.47;100.00
6694;BME280;3384;42.628;23.380;2022-08-19T06:54:31;94095.94;;;24.61;100.00
6694;BME280;3384;42.628;23.380;2022-08-19T06:57:00;94103.03;;;24.66;100.00
6694;BME280;3384;42.628;23.380;2022-08-19T06:59:31;94104.53;;;24.25;100.00
6694;BME280;3384;42.628;23.380;2022-08-19T07:02:00;94086.16;;;24.32;100.00
6694;BME280;3384;42.628;23.380;2022-08-19T07:04:29;94084.19;;;24.47;100.00
6694;BME280;3384;42.628;23.380;2022-08-19T07:06:59;94109.28;;;24.70;100.00
6694;BME280;3384;42.628;23.380;2022-08-19T07:09:26;94116.69;;;24.45;100.00
6694;BME280;3384;42.628;23.380;2022-08-19T07:11:55;94106.13;;;24.50;100.00
6694;BME280;3384;42.628;23.380;2022-08-19T07:14:24;94109.69;;;24.79;100.00
6694;BME280;3384;42.628;23.380;2022-08-19T07:16:55;94105.34;;;24.95;100.00
6694;BME280;3384;42.628;23.380;2022-08-19T07:19:25;94101.78;;;25.09;100.00
6694;BME280;3384;42.628;23.380;2022-08-19T07:21:54;94115.09;;;25.21;99.31
6694;BME280;3384;42.628;23.380;2022-08-19T07:24:22;94095.03;;;25.52;94.74
6694;BME280;3384;42.628;23.380;2022-08-19T07:26:50;94114.97;;;25.59;95.78
6694;BME280;3384;42.628;23.380;2022-08-19T07:29:19;94098.63;;;25.35;95.54
6694;BME280;3384;42.628;23.380;2022-08-19T07:31:49;94108.06;;;25.02;97.40
6694;BME280;3384;42.628;23.380;2022-08-19T07:34:18;94104.84;;;25.46;93.12
6694;BME280;3384;42.628;23.380;2022-08-19T07:36:45;94108.31;;;25.67;91.79
6694;BME280;3384;42.628;23.380;2022-08-19T07:39:17;94110.22;;;25.74;91.87
6694;BME280;3384;42.628;23.380;2022-08-19T07:41:45;94105.97;;;25.66;90.83
6694;BME280;3384;42.628;23.380;2022-08-19T07:44:14;94114.22;;;25.59;91.14
6694;BME280;3384;42.628;23.380;2022-08-19T07:46:43;94094.91;;;25.76;89.32
6694;BME280;3384;42.628;23.380;2022-08-19T07:49:11;94105.09;;;25.83;92.21
6694;BME280;3384;42.628;23.380;2022-08-19T07:51:44;94102.66;;;25.99;87.60
6694;BME280;3384;42.628;23.380;2022-08-19T07:54:11;94103.69;;;26.26;85.95
6694;BME280;3384;42.628;23.380;2022-08-19T07:56:38;94113.38;;;26.41;84.44
6694;BME280;3384;42.628;23.380;2022-08-19T07:59:06;94096.59;;;26.32;86.50
6694;BME280;3384;42.628;23.380;2022-08-19T08:01:33;94123.63;;;26.37;84.57
6694;BME280;3384;42.628;23.380;2022-08-19T08:04:01;94093.03;;;26.35;83.34
6694;BME280;3384;42.628;23.380;2022-08-19T08:06:47;94123.47;;;26.58;81.20
6694;BME280;3384;42.628;23.380;2022-08-19T08:09:35;94108.38;;;26.84;79.01
6694;BME280;3384;42.628;23.380;2022-08-19T08:12:07;94104.41;;;26.88;78.50
6694;BME280;3384;42.628;23.380;2022-08-19T08:14:43;94111.03;;;26.94;76.31
6694;BME280;3384;42.628;23.380;2022-08-19T08:17:22;94108.47;;;26.73;76.53
6694;BME280;3384;42.628;23.380;2022-08-19T08:19:50;94097.16;;;27.05;75.03
6694;BME280;3384;42.628;23.380;2022-08-19T08:22:24;94088.63;;;26.96;75.75
6694;BME280;3384;42.628;23.380;2022-08-19T08:25:10;94101.59;;;26.95;74.26
6694;BME280;3384;42.628;23.380;2022-08-19T08:27:38;94080.53;;;27.22;73.11
6694;BME280;3384;42.628;23.380;2022-08-19T08:30:07;94081.50;;;27.42;71.99
6694;BME280;3384;42.628;23.380;2022-08-19T08:32:35;94082.16;;;27.50;71.32
6694;BME280;3384;42.628;23.380;2022-08-19T08:35:04;94088.41;;;27.54;69.74
6694;BME280;3384;42.628;23.380;2022-08-19T08:37:34;94077.38;;;27.24;71.75
6694;BME280;3384;42.628;23.380;2022-08-19T08:40:03;94094.53;;;27.68;69.96
6694;BME280;3384;42.628;23.380;2022-08-19T08:42:34;94073.22;;;27.72;67.77
6694;BME280;3384;42.628;23.380;2022-08-19T08:45:05;94096.59;;;27.94;66.08
6694;BME280;3384;42.628;23.380;2022-08-19T08:47:38;94077.88;;;28.09;64.33
6694;BME280;3384;42.628;23.380;2022-08-19T08:50:13;94074.69;;;28.14;63.53
6694;BME280;3384;42.628;23.380;2022-08-19T08:52:46;94065.78;;;28.03;63.72
6694;BME280;3384;42.628;23.380;2022-08-19T08:55:19;94066.03;;;27.85;63.35
6694;BME280;3384;42.628;23.380;2022-08-19T08:57:53;94062.25;;;28.02;63.25
6694;BME280;3384;42.628;23.380;2022-08-19T09:00:25;94067.94;;;28.18;63.54
6694;BME280;3384;42.628;23.380;2022-08-19T09:02:53;94069.38;;;28.26;61.48
6694;BME280;3384;42.628;23.380;2022-08-19T09:05:21;94071.00;;;28.24;60.66
6694;BME280;3384;42.628;23.380;2022-08-19T09:07:57;94069.19;;;28.37;59.88
6694;BME280;3384;42.628;23.380;2022-08-19T09:10:32;94045.06;;;28.48;59.36
6694;BME280;3384;42.628;23.380;2022-08-19T09:13:06;94050.00;;;28.30;58.64
6694;BME280;3384;42.628;23.380;2022-08-19T09:15:42;94059.84;;;28.57;57.93
6694;BME280;3384;42.628;23.380;2022-08-19T09:18:10;94047.31;;;28.53;56.56
6694;BME280;3384;42.628;23.380;2022-08-19T09:20:38;94050.91;;;28.50;55.43
6694;BME280;3384;42.628;23.380;2022-08-19T09:23:06;94042.78;;;28.66;55.30
6694;BME280;3384;42.628;23.380;2022-08-19T09:25:33;94048.59;;;28.71;53.80
6694;BME280;3384;42.628;23.380;2022-08-19T09:28:01;94057.03;;;28.84;52.40
6694;BME280;3384;42.628;23.380;2022-08-19T09:30:32;94037.47;;;28.98;51.17
6694;BME280;3384;42.628;23.380;2022-08-19T09:33:00;94044.19;;;28.97;50.27
6694;BME280;3384;42.628;23.380;2022-08-19T09:35:29;94032.97;;;29.08;50.29
6694;BME280;3384;42.628;23.380;2022-08-19T09:37:57;94025.59;;;29.24;50.79
6694;BME280;3384;42.628;23.380;2022-08-19T09:40:30;94026.44;;;29.21;50.96
6694;BME280;3384;42.628;23.380;2022-08-19T09:42:57;94032.56;;;29.29;51.87
6694;BME280;3384;42.628;23.380;2022-08-19T09:45:28;94026.00;;;29.03;49.84
6694;BME280;3384;42.628;23.380;2022-08-19T09:47:56;94025.16;;;29.26;50.26
6694;BME280;3384;42.628;23.380;2022-08-19T09:50:24;94031.44;;;29.26;50.23
6694;BME280;3384;42.628;23.380;2022-08-19T09:52:51;94029.47;;;29.27;50.03
6694;BME280;3384;42.628;23.380;2022-08-19T09:55:22;94019.13;;;29.31;51.16
6694;BME280;3384;42.628;23.380;2022-08-19T09:57:53;94009.50;;;29.39;50.65
6694;BME280;3384;42.628;23.380;2022-08-19T10:00:20;94038.97;;;29.45;50.23
6694;BME280;3384;42.628;23.380;2022-08-19T10:02:47;94013.44;;;29.61;49.75
6694;BME280;3384;42.628;23.380;2022-08-19T10:05:17;94021.25;;;29.43;48.73
6694;BME280;3384;42.628;23.380;2022-08-19T10:08:02;94019.00;;;29.38;48.57
6694;BME280;3384;42.628;23.380;2022-08-19T10:10:29;94000.88;;;29.17;47.58
6694;BME280;3384;42.628;23.380;2022-08-19T10:12:57;93997.19;;;29.24;48.25
6694;BME280;3384;42.628;23.380;2022-08-19T10:15:24;94009.72;;;29.48;47.45
6694;BME280;3384;42.628;23.380;2022-08-19T10:17:51;94001.94;;;29.62;48.13
6694;BME280;3384;42.628;23.380;2022-08-19T10:20:18;93998.09;;;29.56;48.87
6694;BME280;3384;42.628;23.380;2022-08-19T10:22:45;94001.72;;;29.53;48.60
6694;BME280;3384;42.628;23.380;2022-08-19T10:25:12;94001.88;;;29.66;47.53
6694;BME280;3384;42.628;23.380;2022-08-19T10:27:41;93995.63;;;29.62;46.86
6694;BME280;3384;42.628;23.380;2022-08-19T10:30:13;93988.78;;;29.86;46.98
6694;BME280;3384;42.628;23.380;2022-08-19T10:32:40;93996.56;;;29.91;46.18
6694;BME280;3384;42.628;23.380;2022-08-19T10:35:07;93991.34;;;29.77;46.29
6694;BME280;3384;42.628;23.380;2022-08-19T10:37:34;94014.88;;;29.85;46.73
6694;BME280;3384;42.628;23.380;2022-08-19T10:40:03;94003.72;;;29.88;45.49
6694;BME280;3384;42.628;23.380;2022-08-19T10:42:31;93986.72;;;29.90;45.08
6694;BME280;3384;42.628;23.380;2022-08-19T10:44:58;93988.03;;;30.01;44.50
6694;BME280;3384;42.628;23.380;2022-08-19T10:47:26;93985.19;;;30.05;44.57
6694;BME280;3384;42.628;23.380;2022-08-19T10:49:54;93994.06;;;29.96;44.90
6694;BME280;3384;42.628;23.380;2022-08-19T10:52:39;93989.09;;;30.07;45.41
6694;BME280;3384;42.628;23.380;2022-08-19T10:55:06;93994.78;;;30.00;45.49
6694;BME280;3384;42.628;23.380;2022-08-19T10:57:51;93988.38;;;30.23;45.06
6694;BME280;3384;42.628;23.380;2022-08-19T11:00:19;93984.75;;;30.06;44.91
6694;BME280;3384;42.628;23.380;2022-08-19T11:03:00;93980.56;;;30.18;44.43
6694;BME280;3384;42.628;23.380;2022-08-19T11:05:27;93988.53;;;30.32;44.11
6694;BME280;3384;42.628;23.380;2022-08-19T11:07:54;93992.78;;;30.36;43.41
6694;BME280;3384;42.628;23.380;2022-08-19T11:10:24;93998.75;;;30.51;43.55
6694;BME280;3384;42.628;23.380;2022-08-19T11:12:53;93975.28;;;30.55;43.62
6694;BME280;3384;42.628;23.380;2022-08-19T11:15:21;93965.69;;;30.60;43.14
6694;BME280;3384;42.628;23.380;2022-08-19T11:17:48;93987.66;;;30.35;44.52
6694;BME280;3384;42.628;23.380;2022-08-19T11:20:20;93966.41;;;30.48;44.33
6694;BME280;3384;42.628;23.380;2022-08-19T11:22:51;93961.91;;;30.38;44.08
6694;BME280;3384;42.628;23.380;2022-08-19T11:25:18;93972.81;;;30.61;43.75
6694;BME280;3384;42.628;23.380;2022-08-19T11:27:45;93973.34;;;30.72;43.80
6694;BME280;3384;42.628;23.380;2022-08-19T11:30:16;93972.47;;;30.75;43.64
6694;BME280;3384;42.628;23.380;2022-08-19T11:32:44;93966.22;;;30.55;43.07
6694;BME280;3384;42.628;23.380;2022-08-19T11:35:12;93970.72;;;30.49;43.09
6694;BME280;3384;42.628;23.380;2022-08-19T11:37:40;93954.97;;;30.62;43.06
6694;BME280;3384;42.628;23.380;2022-08-19T11:40:08;93960.06;;;30.79;42.85
6694;BME280;3384;42.628;23.380;2022-08-19T11:42:35;93955.66;;;30.82;42.78
6694;BME280;3384;42.628;23.380;2022-08-19T11:45:22;93957.91;;;30.87;42.70
6694;BME280;3384;42.628;23.380;2022-08-19T11:47:49;93949.84;;;30.92;42.78
6694;BME280;3384;42.628;23.380;2022-08-19T11:50:16;93949.28;;;30.85;42.48
6694;BME280;3384;42.628;23.380;2022-08-19T11:52:45;93948.25;;;30.79;42.70
6694;BME280;3384;42.628;23.380;2022-08-19T11:55:13;93941.78;;;30.98;42.97
6694;BME280;3384;42.628;23.380;2022-08-19T11:57:40;93937.25;;;31.04;43.34
6694;BME280;3384;42.628;23.380;2022-08-19T12:00:10;93940.19;;;31.13;42.75
6694;BME280;3384;42.628;23.380;2022-08-19T12:02:37;93937.91;;;30.95;43.14
6694;BME280;3384;42.628;23.380;2022-08-19T12:05:05;93945.38;;;31.11;43.02
6694;BME280;3384;42.628;23.380;2022-08-19T12:07:33;93930.41;;;31.08;43.51
6694;BME280;3384;42.628;23.380;2022-08-19T12:10:01;93927.22;;;31.10;43.60
6694;BME280;3384;42.628;23.380;2022-08-19T12:12:28;93924.00;;;31.11;43.38
6694;BME280;3384;42.628;23.380;2022-08-19T12:14:55;93918.16;;;31.22;43.13
6694;BME280;3384;42.628;23.380;2022-08-19T12:17:24;93911.72;;;31.25;42.72
6694;BME280;3384;42.628;23.380;2022-08-19T12:19:51;93916.88;;;31.39;43.64
6694;BME280;3384;42.628;23.380;2022-08-19T12:22:18;93910.25;;;31.37;43.31
6694;BME280;3384;42.628;23.380;2022-08-19T12:24:47;93896.38;;;31.37;43.05
6694;BME280;3384;42.628;23.380;2022-08-19T12:27:17;93908.72;;;31.19;42.81
6694;BME280;3384;42.628;23.380;2022-08-19T12:29:44;93891.00;;;31.17;42.69
6694;BME280;3384;42.628;23.380;2022-08-19T12:32:11;93897.75;;;31.16;43.08
6694;BME280;3384;42.628;23.380;2022-08-19T12:34:38;93893.66;;;31.20;42.74
6694;BME280;3384;42.628;23.380;2022-08-19T12:37:06;93904.66;;;31.24;42.51
6694;BME280;3384;42.628;23.380;2022-08-19T12:39:37;93903.91;;;31.36;42.66
6694;BME280;3384;42.628;23.380;2022-08-19T12:42:06;93889.97;;;31.40;42.30
6694;BME280;3384;42.628;23.380;2022-08-19T12:44:49;93893.84;;;31.42;42.01
6694;BME280;3384;42.628;23.380;2022-08-19T12:47:33;93882.22;;;31.47;42.11
6694;BME280;3384;42.628;23.380;2022-08-19T12:50:27;93879.66;;;31.40;42.36
6694;BME280;3384;42.628;23.380;2022-08-19T12:53:09;93898.81;;;31.34;42.66
6694;BME280;3384;42.628;23.380;2022-08-19T12:55:36;93889.19;;;31.39;42.39
6694;BME280;3384;42.628;23.380;2022-08-19T12:58:03;93888.97;;;31.46;42.47
6694;BME280;3384;42.628;23.380;2022-08-19T13:00:31;93898.97;;;31.56;42.96
6694;BME280;3384;42.628;23.380;2022-08-19T13:02:59;93877.22;;;31.67;42.71
6694;BME280;3384;42.628;23.380;2022-08-19T13:05:29;93899.19;;;31.62;41.99
6694;BME280;3384;42.628;23.380;2022-08-19T13:07:57;93876.03;;;31.68;41.93
6694;BME280;3384;42.628;23.380;2022-08-19T13:10:29;93889.81;;;31.84;42.04
6694;BME280;3384;42.628;23.380;2022-08-19T13:12:57;93874.41;;;31.83;41.37
6694;BME280;3384;42.628;23.380;2022-08-19T13:15:25;93872.56;;;31.77;41.60
6694;BME280;3384;42.628;23.380;2022-08-19T13:17:55;93873.28;;;31.68;42.32
6694;BME280;3384;42.628;23.380;2022-08-19T13:20:22;93879.28;;;31.79;41.63
6694;BME280;3384;42.628;23.380;2022-08-19T13:22:49;93866.06;;;31.71;42.94
6694;BME280;3384;42.628;23.380;2022-08-19T13:25:17;93868.50;;;31.81;42.60
6694;BME280;3384;42.628;23.380;2022-08-19T13:27:45;93866.72;;;31.87;41.70
6694;BME280;3384;42.628;23.380;2022-08-19T13:30:14;93860.09;;;31.85;41.27
6694;BME280;3384;42.628;23.380;2022-08-19T13:33:00;93861.47;;;31.77;41.74